Time;durP1;ratioP1;P1;durP2;ratioP2;P2;SDS_P1;SDS_P2;PMS_P1;PMS_P2;Temp;Humidity;BMP_temperature;BMP_pressure;BME280_temperature;BME280_humidity;BME280_pressure;Samples;Min_cycle;Max_cycle;Signal;HPM_P1;HPM_P2
2021/01/13 00:02:10;;;;;;;376.73;200.80;;;26.50;2201.60;;;;;;4995999;28;20494;-83
2021/01/13 00:04:36;;;;;;;477.48;273.45;;;26.40;2201.60;;;;;;4995312;28;20127;-83
2021/01/13 00:07:03;;;;;;;436.20;242.63;;;26.10;2201.60;;;;;;4996783;28;20030;-91
2021/01/13 00:09:29;;;;;;;372.23;208.40;;;26.00;2201.60;;;;;;4996598;28;20022;-83
2021/01/13 00:11:58;;;;;;;369.60;203.33;;;26.10;2201.60;;;;;;4995832;28;20061;-82
2021/01/13 00:14:25;;;;;;;307.83;170.57;;;26.20;2201.60;;;;;;4996574;28;20506;-85
2021/01/13 00:16:52;;;;;;;341.83;178.70;;;26.20;2201.60;;;;;;4995382;28;20018;-91
2021/01/13 00:19:21;;;;;;;348.37;188.47;;;26.10;2201.60;;;;;;4995296;28;20129;-90
2021/01/13 00:21:51;;;;;;;320.53;176.57;;;26.10;2201.60;;;;;;4995565;28;20049;-82
2021/01/13 00:24:17;;;;;;;300.27;165.23;;;26.00;2201.60;;;;;;4995725;28;20117;-91
2021/01/13 00:26:43;;;;;;;285.10;152.13;;;25.90;2201.60;;;;;;4995481;28;20034;-83
2021/01/13 00:29:11;;;;;;;302.27;159.97;;;25.70;2201.60;;;;;;4995525;28;20113;-91
2021/01/13 00:31:37;;;;;;;299.70;162.87;;;25.70;2201.60;;;;;;4995615;28;20026;-84
2021/01/13 00:34:04;;;;;;;302.47;159.77;;;25.60;2201.60;;;;;;4994769;28;20030;-83
2021/01/13 00:36:30;;;;;;;263.73;144.00;;;25.70;2201.60;;;;;;4994995;28;20073;-89
2021/01/13 00:38:56;;;;;;;263.63;148.63;;;25.70;2201.60;;;;;;4994668;28;20476;-88
2021/01/13 00:41:22;;;;;;;274.33;143.67;;;25.70;2201.60;;;;;;4994813;28;20027;-82
2021/01/13 00:43:52;;;;;;;265.03;139.47;;;25.60;2201.60;;;;;;4995042;28;20019;-82
2021/01/13 00:46:22;;;;;;;269.10;137.23;;;0.90;2201.60;;;;;;4995229;28;20046;-82
2021/01/13 00:48:48;;;;;;;259.00;133.53;;;0.90;2201.60;;;;;;4994676;28;20026;-82
2021/01/13 00:51:14;;;;;;;233.43;127.63;;;25.70;2201.60;;;;;;4994533;28;20034;-86
2021/01/13 00:53:40;;;;;;;228.43;114.03;;;25.60;2201.60;;;;;;4994750;28;20081;-82
2021/01/13 00:56:06;;;;;;;208.40;115.63;;;25.70;2201.60;;;;;;4994716;28;20022;-86
2021/01/13 00:58:32;;;;;;;236.10;120.77;;;25.80;2201.60;;;;;;4994737;28;20026;-84
2021/01/13 01:00:59;;;;;;;247.63;128.23;;;25.90;2201.60;;;;;;4994546;28;20022;-91
2021/01/13 01:03:25;;;;;;;266.10;140.57;;;26.00;2201.60;;;;;;4994398;28;20109;-82
2021/01/13 01:05:51;;;;;;;330.83;178.30;;;26.00;2201.60;;;;;;4994188;28;20050;-90
2021/01/13 01:08:17;;;;;;;284.23;156.83;;;26.00;2201.60;;;;;;4994259;28;20080;-89
2021/01/13 01:10:51;;;;;;;277.47;144.63;;;26.00;2201.60;;;;;;4994723;28;20022;-82
2021/01/13 01:13:17;;;;;;;281.97;157.53;;;26.10;2201.60;;;;;;4994805;28;20023;-89
2021/01/13 01:15:43;;;;;;;295.10;164.47;;;25.80;2201.60;;;;;;4994335;28;20037;-83
2021/01/13 01:18:08;;;;;;;308.50;165.47;;;25.90;2201.60;;;;;;4994112;28;20039;-89
2021/01/13 01:20:34;;;;;;;285.53;158.33;;;25.90;2201.60;;;;;;4994220;28;20018;-82
2021/01/13 01:23:02;;;;;;;322.60;179.67;;;25.70;2201.60;;;;;;4994318;28;20396;-87
2021/01/13 01:25:29;;;;;;;331.80;171.63;;;0.80;2201.60;;;;;;4993937;28;20049;-82
2021/01/13 01:27:57;;;;;;;313.63;160.20;;;0.80;2201.60;;;;;;4994038;28;20026;-82
2021/01/13 01:30:28;;;;;;;307.60;163.77;;;0.70;2201.60;;;;;;4994114;28;20061;-82
2021/01/13 01:32:54;;;;;;;322.60;171.83;;;0.70;2201.60;;;;;;4993963;28;20025;-81
2021/01/13 01:35:20;;;;;;;338.50;171.30;;;0.50;2201.60;;;;;;4993370;28;20138;-83
2021/01/13 01:37:46;;;;;;;302.23;153.93;;;0.50;2201.60;;;;;;4994153;28;20022;-88
2021/01/13 01:40:14;;;;;;;274.23;137.67;;;0.60;2201.60;;;;;;4994141;28;20026;-89
2021/01/13 01:42:54;;;;;;;276.20;140.53;;;0.60;2201.60;;;;;;4994146;28;20101;-88
2021/01/13 01:45:28;;;;;;;232.73;124.33;;;0.70;2201.60;;;;;;4993825;28;20077;-89
2021/01/13 01:48:00;;;;;;;250.33;124.63;;;0.80;2201.60;;;;;;4994139;28;20383;-82
2021/01/13 01:50:38;;;;;;;255.45;133.32;;;0.80;2201.60;;;;;;4993722;28;20037;-82
2021/01/13 01:53:25;;;;;;;279.93;144.60;;;0.70;2201.60;;;;;;4994849;28;20022;-86
2021/01/13 01:56:12;;;;;;;269.13;142.50;;;0.80;2201.60;;;;;;4993691;28;20027;-89
2021/01/13 01:58:40;;;;;;;287.87;148.70;;;0.80;2201.60;;;;;;4993913;28;20546;-82
2021/01/13 02:01:06;;;;;;;263.10;131.20;;;0.70;2201.60;;;;;;4993878;28;20085;-84
2021/01/13 02:03:48;;;;;;;226.23;121.10;;;0.60;2201.60;;;;;;4993565;28;20029;-89
2021/01/13 02:06:16;;;;;;;216.63;108.03;;;0.50;2201.60;;;;;;4993312;28;20093;-88
2021/01/13 02:08:42;;;;;;;230.77;115.47;;;0.40;2201.60;;;;;;4994790;28;20022;-82
2021/01/13 02:11:17;;;;;;;229.07;113.57;;;0.50;2201.60;;;;;;4993906;28;20022;-82
2021/01/13 02:13:48;;;;;;;245.37;121.87;;;0.60;2201.60;;;;;;4994211;28;20026;-81
2021/01/13 02:16:18;;;;;;;211.63;99.97;;;0.60;2201.60;;;;;;4997832;28;20027;-85
2021/01/13 02:18:47;;;;;;;204.00;96.07;;;0.60;2201.60;;;;;;4998274;28;20037;-82
2021/01/13 02:21:18;;;;;;;205.73;92.83;;;0.40;2201.60;;;;;;4998907;28;20502;-82
2021/01/13 02:24:07;;;;;;;213.13;99.27;;;0.40;2201.60;;;;;;4998825;28;20468;-89
2021/01/13 02:27:01;;;;;;;203.03;97.53;;;0.50;2201.60;;;;;;4946043;29;20079;-82
2021/01/13 02:29:43;;;;;;;226.97;106.27;;;0.60;2201.60;;;;;;4934411;29;20096;-88
2021/01/13 02:32:26;;;;;;;221.35;101.20;;;0.70;2201.60;;;;;;4963917;29;20086;-82
2021/01/13 02:35:26;;;;;;;218.38;99.05;;;0.80;2201.60;;;;;;4958745;29;20047;-85
2021/01/13 02:38:13;;;;;;;227.43;105.43;;;0.80;2201.60;;;;;;4942946;29;20051;-81
2021/01/13 02:40:48;;;;;;;250.80;109.40;;;0.80;2201.60;;;;;;4957705;29;20027;-82
2021/01/13 02:43:17;;;;;;;262.73;113.73;;;0.90;2201.60;;;;;;4941485;29;20043;-83
2021/01/13 02:45:45;;;;;;;259.57;118.63;;;0.90;2201.60;;;;;;4941666;29;20075;-84
2021/01/13 02:48:22;;;;;;;267.87;119.10;;;0.90;2201.60;;;;;;4941211;29;20702;-90
2021/01/13 02:50:54;;;;;;;247.70;107.23;;;0.80;2201.60;;;;;;4941727;29;20034;-89
2021/01/13 02:53:19;;;;;;;250.38;117.05;;;0.80;2201.60;;;;;;4941556;29;20117;-86
2021/01/13 02:55:48;;;;;;;258.87;118.43;;;0.80;2201.60;;;;;;4957270;29;20082;-86
2021/01/13 02:58:35;;;;;;;230.33;108.90;;;0.60;2201.60;;;;;;4941275;29;20038;-86
2021/01/13 03:01:03;;;;;;;209.63;91.57;;;0.40;2201.60;;;;;;4940461;29;20504;-84
2021/01/13 03:03:32;;;;;;;202.70;90.43;;;0.30;2201.60;;;;;;4975560;28;20515;-88
2021/01/13 03:06:09;;;;;;;183.73;82.57;;;0.40;2201.60;;;;;;4996607;28;20038;-87
2021/01/13 03:08:59;;;;;;;131.60;63.47;;;0.40;2201.60;;;;;;4996517;28;20030;-87
2021/01/13 03:11:25;;;;;;;121.63;57.97;;;0.50;2201.60;;;;;;4996469;28;20113;-87
2021/01/13 03:13:56;;;;;;;116.17;55.33;;;0.60;2201.60;;;;;;4997607;28;20511;-88
2021/01/13 03:16:22;;;;;;;130.27;53.00;;;0.60;2201.60;;;;;;4996621;28;20022;-89
2021/01/13 03:18:57;;;;;;;121.07;54.70;;;0.60;2201.60;;;;;;4996940;28;20471;-88
2021/01/13 03:21:34;;;;;;;123.63;61.37;;;0.80;2201.60;;;;;;4997160;28;20057;-85
2021/01/13 03:24:41;;;;;;;145.17;63.07;;;0.80;2201.60;;;;;;4996206;28;20036;-88
2021/01/13 03:27:09;;;;;;;149.63;67.57;;;0.80;2201.60;;;;;;4978739;28;20030;-87
2021/01/13 03:29:41;;;;;;;135.00;63.70;;;0.70;2201.60;;;;;;4996215;28;20404;-88
2021/01/13 03:32:09;;;;;;;140.82;63.45;;;0.80;2201.60;;;;;;4996456;28;20116;-80
2021/01/13 03:35:24;;;;;;;136.30;61.20;;;0.50;2201.60;;;;;;4997092;28;20050;-89
2021/01/13 03:38:00;;;;;;;146.27;68.90;;;0.60;2201.60;;;;;;4994264;28;20061;-89
2021/01/13 03:40:29;;;;;;;160.00;73.27;;;0.60;2201.60;;;;;;4995820;28;20365;-81
2021/01/13 03:42:57;;;;;;;188.97;83.97;;;0.50;2201.60;;;;;;4995962;28;20038;-80
2021/01/13 03:45:45;;;;;;;188.33;82.83;;;0.50;2201.60;;;;;;4997095;28;20045;-82
2021/01/13 03:48:35;;;;;;;209.50;87.07;;;0.40;2201.60;;;;;;4995746;28;20018;-84
2021/01/13 03:51:02;;;;;;;205.97;89.87;;;0.60;2201.60;;;;;;4995755;28;20121;-84
2021/01/13 03:53:29;;;;;;;232.90;101.43;;;0.60;2201.60;;;;;;4995794;28;20464;-88
2021/01/13 03:55:57;;;;;;;231.30;90.13;;;0.70;2201.60;;;;;;4995617;28;20031;-79
2021/01/13 03:58:41;;;;;;;215.53;87.97;;;0.80;2201.60;;;;;;4995887;28;20431;-86
2021/01/13 04:01:22;;;;;;;226.03;100.70;;;0.60;2201.60;;;;;;4995656;28;20018;-80
2021/01/13 04:04:24;;;;;;;230.87;108.73;;;0.40;2201.60;;;;;;4995319;28;20031;-85
2021/01/13 04:06:59;;;;;;;244.43;99.50;;;0.60;2201.60;;;;;;4996886;28;20100;-88
2021/01/13 04:09:25;;;;;;;248.17;102.00;;;0.60;2201.60;;;;;;4996671;28;20019;-86
2021/01/13 04:12:10;;;;;;;235.63;100.73;;;0.50;2201.60;;;;;;4995493;28;20052;-80
2021/01/13 04:14:47;;;;;;;234.30;99.73;;;0.30;2201.60;;;;;;4994723;28;20038;-80
2021/01/13 04:17:14;;;;;;;250.77;112.27;;;0.40;2201.60;;;;;;4995136;28;20037;-80
2021/01/13 04:19:44;;;;;;;260.33;112.77;;;0.50;2201.60;;;;;;4994926;28;20030;-80
2021/01/13 04:22:15;;;;;;;260.67;110.87;;;0.30;2201.60;;;;;;4989370;28;20037;-89
2021/01/13 04:24:42;;;;;;;247.50;103.97;;;0.30;2201.60;;;;;;4994666;28;20488;-88
2021/01/13 04:27:10;;;;;;;252.93;110.10;;;0.40;2201.60;;;;;;4994893;28;20034;-89
2021/01/13 04:29:36;;;;;;;227.50;101.77;;;0.30;2201.60;;;;;;4994316;28;20028;-80
2021/01/13 04:32:03;;;;;;;206.13;96.67;;;0.30;2201.60;;;;;;4995482;28;20125;-84
2021/01/13 04:34:29;;;;;;;216.37;100.53;;;0.30;2201.60;;;;;;4994531;28;20074;-81
2021/01/13 04:36:56;;;;;;;218.73;108.07;;;0.30;2201.60;;;;;;5014245;28;20132;-79
2021/01/13 04:39:24;;;;;;;206.87;96.27;;;0.30;2201.60;;;;;;4998027;28;20467;-88
2021/01/13 04:42:06;;;;;;;187.03;97.73;;;0.40;2201.60;;;;;;5014998;28;20025;-80
2021/01/13 04:45:05;;;;;;;201.03;111.10;;;0.50;2201.60;;;;;;4998094;28;20040;-89
2021/01/13 04:47:49;;;;;;;98.73;48.40;;;0.60;2201.60;;;;;;4939341;29;20036;-89
2021/01/13 04:50:19;;;;;;;111.57;53.57;;;0.70;2201.60;;;;;;4939024;29;20029;-80
2021/01/13 04:52:47;;;;;;;143.03;68.23;;;0.60;2201.60;;;;;;4939481;29;20035;-80
2021/01/13 04:55:28;;;;;;;134.40;68.50;;;0.50;2201.60;;;;;;4939123;29;20497;-88
2021/01/13 04:58:21;;;;;;;146.60;71.73;;;0.30;2201.60;;;;;;4939296;29;20075;-81
2021/01/13 05:01:11;;;;;;;124.55;59.00;;;0.30;2201.60;;;;;;4938962;29;20043;-80
2021/01/13 05:03:39;;;;;;;111.90;55.87;;;0.50;2201.60;;;;;;4954814;28;20038;-89
2021/01/13 05:06:31;;;;;;;112.37;51.93;;;0.50;2201.60;;;;;;4938946;29;20572;-89
2021/01/13 05:09:08;;;;;;;106.47;48.60;;;0.60;2201.60;;;;;;4879513;29;20041;-90
2021/01/13 05:11:52;;;;;;;91.40;47.77;;;0.30;2201.60;;;;;;4879569;29;20041;-89
2021/01/13 05:14:19;;;;;;;95.20;46.60;;;0.30;2201.60;;;;;;4863797;29;20029;-81
2021/01/13 05:16:49;;;;;;;90.13;48.10;;;0.30;2201.60;;;;;;4863652;29;20037;-83
2021/01/13 05:19:24;;;;;;;97.97;48.47;;;0.10;2201.60;;;;;;4878876;29;20071;-89
2021/01/13 05:21:56;;;;;;;106.20;51.83;;;12.90;2201.60;;;;;;4879133;29;20040;-88
2021/01/13 05:24:25;;;;;;;110.82;50.47;;;12.90;2201.60;;;;;;4901817;29;20039;-82
2021/01/13 05:27:02;;;;;;;113.70;53.43;;;0.00;2201.60;;;;;;4919255;29;20027;-81
2021/01/13 05:29:37;;;;;;;109.37;54.27;;;0.10;2201.60;;;;;;4919066;29;20028;-86
2021/01/13 05:32:07;;;;;;;103.70;52.43;;;0.20;2201.60;;;;;;4919622;29;20063;-83
2021/01/13 05:34:35;;;;;;;107.33;56.77;;;0.20;2201.60;;;;;;4918984;29;20031;-84
2021/01/13 05:37:25;;;;;;;133.03;62.30;;;0.20;2201.60;;;;;;4919318;29;20044;-90
2021/01/13 05:39:51;;;;;;;112.57;58.60;;;0.20;2201.60;;;;;;4919690;29;20114;-91
2021/01/13 05:42:19;;;;;;;116.37;56.83;;;0.10;2201.60;;;;;;4919509;29;20477;-92
2021/01/13 05:44:46;;;;;;;118.07;58.57;;;0.10;2201.60;;;;;;4924802;28;20060;-87
2021/01/13 05:47:46;;;;;;;101.17;54.07;;;0.20;2201.60;;;;;;4993626;28;20522;-89
2021/01/13 05:50:16;;;;;;;114.93;56.97;;;0.30;2201.60;;;;;;4992783;28;20027;-92
2021/01/13 05:52:42;;;;;;;113.67;62.67;;;0.30;2201.60;;;;;;4994874;28;20128;-91
2021/01/13 05:55:08;;;;;;;125.17;64.60;;;0.40;2201.60;;;;;;4993764;28;20050;-81
2021/01/13 05:57:36;;;;;;;152.20;80.90;;;0.40;2201.60;;;;;;4993201;28;20018;-81
2021/01/13 06:00:04;;;;;;;204.93;103.20;;;0.40;2201.60;;;;;;4993769;28;20023;-88
2021/01/13 06:02:40;;;;;;;140.93;68.20;;;0.40;2201.60;;;;;;4993282;28;20036;-87
2021/01/13 06:05:06;;;;;;;118.80;57.93;;;0.40;2201.60;;;;;;4993056;28;20046;-81
2021/01/13 06:07:34;;;;;;;123.63;61.97;;;0.40;2176.00;;;;;;4993589;28;20089;-85
2021/01/13 06:10:01;;;;;;;157.20;80.83;;;0.40;2201.60;;;;;;4993637;28;20026;-91
2021/01/13 06:12:30;;;;;;;136.33;69.33;;;0.50;2176.00;;;;;;4993379;28;20551;-88
2021/01/13 06:14:56;;;;;;;127.00;65.87;;;0.40;2176.00;;;;;;4994528;28;20041;-80
2021/01/13 06:17:24;;;;;;;148.90;74.90;;;0.40;2201.60;;;;;;4994450;28;20481;-81
2021/01/13 06:19:54;;;;;;;163.43;81.33;;;0.50;2201.60;;;;;;4992746;28;20038;-80
2021/01/13 06:22:33;;;;;;;145.40;76.93;;;0.40;2201.60;;;;;;4993389;28;20029;-81
2021/01/13 06:25:00;;;;;;;147.97;75.80;;;0.40;2201.60;;;;;;4994872;28;20410;-92
2021/01/13 06:27:44;;;;;;;151.87;84.23;;;0.40;2201.60;;;;;;4994330;28;20480;-90
2021/01/13 06:30:18;;;;;;;160.43;81.80;;;0.50;2201.60;;;;;;4993829;28;20033;-84
2021/01/13 06:33:03;;;;;;;175.50;85.77;;;0.50;2201.60;;;;;;4995960;28;20031;-90
2021/01/13 06:35:35;;;;;;;178.33;88.20;;;0.60;2201.60;;;;;;4994286;28;20993;-91
2021/01/13 06:38:06;;;;;;;159.10;83.63;;;0.60;2201.60;;;;;;4993978;28;20022;-92
2021/01/13 06:40:33;;;;;;;173.17;92.30;;;0.60;2201.60;;;;;;4993154;28;20045;-85
2021/01/13 06:43:18;;;;;;;173.07;96.67;;;0.60;2176.00;;;;;;4994064;28;20034;-92
2021/01/13 06:45:44;;;;;;;190.03;95.97;;;0.60;2176.00;;;;;;4993164;28;20108;-80
2021/01/13 06:48:09;;;;;;;176.40;95.50;;;0.60;2201.60;;;;;;4992737;28;20062;-90
2021/01/13 06:50:40;;;;;;;177.93;91.80;;;0.60;2201.60;;;;;;4993191;28;20034;-81
2021/01/13 06:53:13;;;;;;;172.87;95.73;;;0.70;2201.60;;;;;;4993087;28;20089;-80
2021/01/13 06:55:40;;;;;;;203.48;106.60;;;0.70;2201.60;;;;;;4993521;28;20189;-82
2021/01/13 06:58:14;;;;;;;178.30;92.80;;;0.80;2201.60;;;;;;4993004;28;20089;-85
2021/01/13 07:00:41;;;;;;;177.63;98.73;;;0.90;2201.60;;;;;;4993747;28;20041;-81
2021/01/13 07:03:20;;;;;;;173.57;90.73;;;0.90;2201.60;;;;;;4996368;28;20037;-92
2021/01/13 07:05:45;;;;;;;239.77;128.03;;;25.60;2201.60;;;;;;4996520;28;20049;-85
2021/01/13 07:08:11;;;;;;;220.07;120.80;;;0.80;2201.60;;;;;;4996613;28;20034;-80
2021/01/13 07:10:40;;;;;;;217.97;112.90;;;0.80;2201.60;;;;;;4996536;28;20155;-89
2021/01/13 07:13:08;;;;;;;198.30;104.77;;;0.90;2201.60;;;;;;4996406;28;20074;-80
2021/01/13 07:15:35;;;;;;;170.60;92.60;;;25.60;2201.60;;;;;;4996569;28;20121;-81
2021/01/13 07:18:04;;;;;;;154.37;80.70;;;25.70;2201.60;;;;;;4996342;28;20357;-88
2021/01/13 07:20:38;;;;;;;139.23;73.27;;;25.80;2201.60;;;;;;4995928;28;20047;-84
2021/01/13 07:23:05;;;;;;;137.93;80.83;;;25.90;2201.60;;;;;;4996349;28;20072;-88
2021/01/13 07:25:33;;;;;;;153.10;81.07;;;25.80;2201.60;;;;;;4996139;28;20062;-90
2021/01/13 07:28:04;;;;;;;265.33;138.67;;;25.90;2201.60;;;;;;4997205;28;20029;-91
2021/01/13 07:30:31;;;;;;;263.47;149.53;;;25.90;2201.60;;;;;;4996170;28;20029;-92
2021/01/13 07:32:59;;;;;;;319.27;175.33;;;26.00;2201.60;;;;;;4996016;28;20022;-86
2021/01/13 07:35:30;;;;;;;270.93;165.73;;;25.90;2201.60;;;;;;4995822;28;20054;-88
2021/01/13 07:38:06;;;;;;;246.73;147.73;;;25.90;2201.60;;;;;;4997406;28;20054;-80
2021/01/13 07:40:36;;;;;;;173.87;94.50;;;25.90;2201.60;;;;;;4996265;28;20069;-82
2021/01/13 07:43:10;;;;;;;145.87;86.23;;;26.00;2201.60;;;;;;4995736;28;20022;-88
2021/01/13 07:45:45;;;;;;;154.03;94.17;;;26.00;2201.60;;;;;;4995764;28;20038;-90
2021/01/13 07:48:19;;;;;;;138.30;77.23;;;25.90;2201.60;;;;;;5003238;28;20027;-89
2021/01/13 07:50:50;;;;;;;143.63;85.07;;;25.90;2201.60;;;;;;4998027;28;20110;-83
2021/01/13 07:53:24;;;;;;;132.57;74.33;;;26.00;2201.60;;;;;;4995608;28;20026;-87
2021/01/13 07:56:02;;;;;;;161.00;81.57;;;26.10;2201.60;;;;;;4995693;28;20495;-80
2021/01/13 07:58:32;;;;;;;168.43;86.73;;;26.10;2201.60;;;;;;4995984;28;20026;-84
2021/01/13 08:01:26;;;;;;;169.07;94.93;;;25.90;2176.00;;;;;;4993615;28;20046;-82
2021/01/13 08:04:16;;;;;;;160.17;85.87;;;25.90;2201.60;;;;;;5002399;28;20104;-83
2021/01/13 08:06:52;;;;;;;129.93;72.63;;;26.00;2201.60;;;;;;5001651;28;20042;-82
2021/01/13 08:09:23;;;;;;;181.60;98.07;;;25.80;2201.60;;;;;;4998573;28;20033;-91
2021/01/13 08:12:08;;;;;;;229.53;127.77;;;25.80;2201.60;;;;;;4995089;28;20073;-88
2021/01/13 08:14:52;;;;;;;287.37;166.97;;;25.90;2201.60;;;;;;4995508;28;20053;-82
2021/01/13 08:17:39;;;;;;;287.60;164.20;;;26.20;2176.00;;;;;;4995334;28;20041;-87
2021/01/13 08:20:28;;;;;;;190.57;110.20;;;25.90;2201.60;;;;;;4994693;28;20060;-81
2021/01/13 08:23:12;;;;;;;163.23;95.60;;;25.70;2201.60;;;;;;4995543;28;20125;-87
2021/01/13 08:25:49;;;;;;;173.77;96.37;;;26.00;2201.60;;;;;;4995377;28;20030;-91
2021/01/13 08:28:16;;;;;;;184.17;105.47;;;26.20;2201.60;;;;;;4995195;28;20358;-81
2021/01/13 08:30:48;;;;;;;196.90;109.63;;;26.30;2201.60;;;;;;4994939;28;20164;-88
2021/01/13 08:33:23;;;;;;;167.60;91.83;;;26.40;2201.60;;;;;;4995954;28;20030;-90
2021/01/13 08:35:52;;;;;;;174.40;98.50;;;26.40;2201.60;;;;;;4995096;28;20062;-88
2021/01/13 08:38:18;;;;;;;211.73;120.37;;;26.40;2201.60;;;;;;4995441;28;20031;-81
2021/01/13 08:40:44;;;;;;;234.37;132.10;;;26.40;2201.60;;;;;;4995495;28;20034;-81
2021/01/13 08:43:15;;;;;;;228.40;127.97;;;26.50;2201.60;;;;;;4994980;28;20035;-83
2021/01/13 08:45:48;;;;;;;229.33;127.33;;;26.50;2201.60;;;;;;4994713;28;20145;-81
2021/01/13 08:48:21;;;;;;;215.30;124.55;;;26.50;2201.60;;;;;;4994699;28;21158;-81
2021/01/13 08:51:08;;;;;;;228.63;132.97;;;51.30;2227.20;;;;;;4995093;28;20026;-81
2021/01/13 08:53:34;;;;;;;243.23;137.60;;;51.50;2227.20;;;;;;4994958;28;20054;-90
2021/01/13 08:56:01;;;;;;;257.20;142.47;;;51.50;2227.20;;;;;;4994923;28;20129;-93
2021/01/13 08:58:34;;;;;;;247.03;137.97;;;51.70;2201.60;;;;;;4994401;28;20030;-90
2021/01/13 09:01:08;;;;;;;277.47;152.20;;;51.80;2201.60;;;;;;4994706;28;20026;-92
2021/01/13 09:03:39;;;;;;;234.83;140.27;;;51.90;2176.00;;;;;;4994512;28;20472;-81
2021/01/13 09:06:24;;;;;;;256.87;149.57;;;51.80;2150.40;;;;;;4995737;28;20559;-93
2021/01/13 09:08:51;;;;;;;276.67;163.33;;;51.80;2201.60;;;;;;4994153;28;20045;-92
2021/01/13 09:11:46;;;;;;;310.13;175.53;;;52.00;2176.00;;;;;;4994642;28;20157;-89
2021/01/13 09:14:23;;;;;;;333.73;200.67;;;51.80;2201.60;;;;;;4938821;29;20035;-90
2021/01/13 09:16:55;;;;;;;334.53;195.83;;;51.60;2227.20;;;;;;4955568;29;20031;-91
2021/01/13 09:19:30;;;;;;;292.48;163.77;;;51.80;2227.20;;;;;;4954532;29;20118;-92
2021/01/13 09:22:04;;;;;;;303.63;183.03;;;52.10;2201.60;;;;;;4939242;29;20031;-91
2021/01/13 09:24:42;;;;;;;334.73;197.70;;;76.90;2176.00;;;;;;4954841;28;20039;-92
2021/01/13 09:27:10;;;;;;;311.03;189.43;;;77.10;2176.00;;;;;;4955412;29;20039;-90
2021/01/13 09:29:51;;;;;;;315.30;190.97;;;77.40;2150.40;;;;;;4953973;29;20097;-89
2021/01/13 09:32:18;;;;;;;307.33;175.20;;;77.70;2150.40;;;;;;4939134;29;20039;-92
2021/01/13 09:34:45;;;;;;;281.07;169.40;;;77.70;2124.80;;;;;;4955375;29;20046;-91
2021/01/13 09:37:11;;;;;;;246.33;152.10;;;102.40;2099.20;;;;;;4938888;29;20096;-92
2021/01/13 09:39:39;;;;;;;247.23;144.90;;;102.40;2073.60;;;;;;4938399;29;20047;-90
2021/01/13 09:42:08;;;;;;;258.37;152.07;;;102.50;2073.60;;;;;;4939010;29;20051;-82
2021/01/13 09:44:36;;;;;;;216.43;122.60;;;102.50;2073.60;;;;;;4938277;29;20043;-90
2021/01/13 09:47:21;;;;;;;208.87;117.83;;;102.50;2099.20;;;;;;4954541;29;20046;-82
2021/01/13 09:49:49;;;;;;;207.90;119.03;;;103.00;2150.40;;;;;;4945715;28;20425;-88
2021/01/13 09:52:15;;;;;;;191.53;110.60;;;102.60;2073.60;;;;;;4994686;28;20058;-87
2021/01/13 09:54:48;;;;;;;170.03;102.63;;;102.40;2073.60;;;;;;4993890;28;20054;-90
2021/01/13 09:57:16;;;;;;;163.17;94.00;;;77.70;2099.20;;;;;;4994844;28;20030;-92
2021/01/13 09:59:59;;;;;;;161.90;91.20;;;77.60;2124.80;;;;;;4993416;28;20089;-85
2021/01/13 10:02:27;;;;;;;166.40;91.70;;;77.50;2150.40;;;;;;4993641;28;20023;-81
2021/01/13 10:04:53;;;;;;;166.97;92.03;;;77.40;2150.40;;;;;;4994839;28;20047;-90
2021/01/13 10:07:22;;;;;;;201.30;114.43;;;77.50;2150.40;;;;;;4993814;28;20480;-83
2021/01/13 10:09:49;;;;;;;208.03;117.37;;;77.60;2150.40;;;;;;4994090;28;20058;-82
2021/01/13 10:12:18;;;;;;;211.40;117.60;;;77.70;2150.40;;;;;;4993357;28;20022;-93
2021/01/13 10:14:53;;;;;;;199.03;111.50;;;77.70;2150.40;;;;;;4993412;28;20499;-81
2021/01/13 10:17:26;;;;;;;217.07;116.73;;;102.40;2124.80;;;;;;4992864;28;20496;-82
2021/01/13 10:19:53;;;;;;;196.43;123.67;;;102.50;2099.20;;;;;;4993002;28;20033;-81
2021/01/13 10:22:24;;;;;;;204.80;115.97;;;102.50;2099.20;;;;;;4993223;28;20376;-81
2021/01/13 10:24:50;;;;;;;192.93;110.07;;;102.50;2099.20;;;;;;4993457;28;20045;-81
2021/01/13 10:27:17;;;;;;;175.43;105.80;;;102.60;2124.80;;;;;;4993596;28;20018;-87
2021/01/13 10:29:46;;;;;;;185.27;108.33;;;102.60;2099.20;;;;;;4993398;28;20026;-89
2021/01/13 10:32:14;;;;;;;194.33;107.47;;;102.80;2099.20;;;;;;4993320;28;20108;-83
2021/01/13 10:34:40;;;;;;;193.77;113.10;;;102.80;2073.60;;;;;;4993130;28;20505;-80
2021/01/13 10:37:06;;;;;;;190.33;111.90;;;102.90;2099.20;;;;;;4983752;28;20372;-92
2021/01/13 10:39:32;;;;;;;206.00;125.17;;;103.00;2073.60;;;;;;5001094;28;20026;-81
2021/01/13 10:42:06;;;;;;;176.07;99.93;;;103.00;2073.60;;;;;;5002056;28;20538;-90
2021/01/13 10:44:33;;;;;;;160.10;96.70;;;103.00;2073.60;;;;;;5010258;28;20076;-80
2021/01/13 10:47:08;;;;;;;172.80;96.20;;;103.10;2048.00;;;;;;5009549;28;20009;-84
2021/01/13 10:49:36;;;;;;;147.30;88.37;;;103.20;2048.00;;;;;;5009144;28;20501;-89
2021/01/13 10:52:12;;;;;;;150.57;85.67;;;103.30;2048.00;;;;;;5001136;28;20025;-87
2021/01/13 10:54:42;;;;;;;125.47;69.60;;;103.30;2022.40;;;;;;5001277;28;20064;-84
2021/01/13 10:57:10;;;;;;;154.67;89.63;;;103.30;1971.20;;;;;;5000516;28;20029;-86
2021/01/13 10:59:37;;;;;;;172.57;101.13;;;103.20;1996.80;;;;;;5000108;28;20480;-88
2021/01/13 11:02:23;;;;;;;182.97;106.63;;;103.10;2022.40;;;;;;5000020;28;20033;-81
2021/01/13 11:04:49;;;;;;;208.90;117.73;;;103.00;1996.80;;;;;;4999486;28;20045;-88
2021/01/13 11:07:17;;;;;;;218.87;127.70;;;102.90;2048.00;;;;;;5000162;28;20383;-87
2021/01/13 11:09:48;;;;;;;217.57;132.67;;;103.00;2099.20;;;;;;5000258;28;20038;-83
2021/01/13 11:12:22;;;;;;;221.57;129.67;;;103.00;2099.20;;;;;;5000772;28;20022;-90
2021/01/13 11:14:49;;;;;;;225.87;139.00;;;102.90;2099.20;;;;;;5000114;28;20083;-90
2021/01/13 11:17:19;;;;;;;225.57;133.63;;;102.90;2099.20;;;;;;4999686;28;20535;-81
2021/01/13 11:19:52;;;;;;;233.33;136.83;;;102.90;2124.80;;;;;;4999815;28;20156;-81
2021/01/13 11:22:19;;;;;;;239.07;139.90;;;103.00;2099.20;;;;;;4999629;28;20049;-81
2021/01/13 11:24:49;;;;;;;198.07;120.50;;;103.00;2124.80;;;;;;4999152;28;20037;-80
2021/01/13 11:27:21;;;;;;;188.93;112.10;;;102.80;2099.20;;;;;;4999313;28;20026;-84
2021/01/13 11:29:55;;;;;;;198.07;117.73;;;102.80;2124.80;;;;;;4999334;28;20037;-91
2021/01/13 11:32:23;;;;;;;183.37;108.03;;;102.80;2124.80;;;;;;4999865;28;20104;-91
2021/01/13 11:34:51;;;;;;;144.83;85.40;;;102.80;2073.60;;;;;;4999344;28;20034;-82
2021/01/13 11:37:32;;;;;;;141.33;85.30;;;102.90;2073.60;;;;;;5017668;28;20080;-92
2021/01/13 11:40:08;;;;;;;133.00;79.43;;;103.00;2124.80;;;;;;4999453;28;20036;-91
2021/01/13 11:43:07;;;;;;;150.63;86.00;;;102.80;2099.20;;;;;;5016776;28;20030;-90
2021/01/13 11:46:03;;;;;;;152.63;87.97;;;102.90;2073.60;;;;;;4999096;28;20038;-81
2021/01/13 11:48:54;;;;;;;126.57;73.07;;;102.90;2073.60;;;;;;4997733;28;20068;-88
2021/01/13 11:51:22;;;;;;;128.63;75.83;;;102.80;2099.20;;;;;;4988748;28;20498;-94
2021/01/13 11:53:48;;;;;;;138.63;80.50;;;102.80;2124.80;;;;;;4999010;28;20057;-81
2021/01/13 11:56:14;;;;;;;124.13;68.93;;;102.80;2150.40;;;;;;5016325;28;20087;-79
2021/01/13 11:58:46;;;;;;;100.20;57.30;;;102.60;2150.40;;;;;;5012975;28;20482;-86
2021/01/13 12:01:12;;;;;;;72.93;42.42;;;102.50;2176.00;;;;;;5015904;28;20038;-84
2021/01/13 12:03:38;;;;;;;83.87;49.23;;;102.50;2124.80;;;;;;4998918;28;20037;-85
2021/01/13 12:06:09;;;;;;;69.53;44.60;;;102.60;2150.40;;;;;;5016226;28;20467;-82
2021/01/13 12:08:35;;;;;;;82.67;48.37;;;102.60;2201.60;;;;;;4998935;28;20101;-85
2021/01/13 12:11:01;;;;;;;90.93;55.93;;;102.50;2124.80;;;;;;4998711;28;20038;-82
2021/01/13 12:13:30;;;;;;;77.30;44.27;;;102.50;2150.40;;;;;;4998524;28;20021;-81
2021/01/13 12:16:01;;;;;;;92.63;56.37;;;102.50;2150.40;;;;;;4998284;28;20026;-82
2021/01/13 12:18:33;;;;;;;100.70;59.57;;;102.50;2124.80;;;;;;4998270;28;20026;-82
2021/01/13 12:21:24;;;;;;;66.00;39.93;;;102.60;2124.80;;;;;;5016048;28;20021;-90
2021/01/13 12:23:53;;;;;;;88.87;53.80;;;102.60;2124.80;;;;;;4998630;28;20052;-82